• Join FlightAware (Why Join?)
  • Login
  • US Flag 
12:55AM EDT


 

Airport Tracker/Info


-or-


 

Live Flight TrackerFlight Track Log ✈ USC105 ✈ 25-Apr-2013 ✈ KBKL - KYIP

Flight Track Log - Related Links

Times and Time Zones

All times are in EDT time to prevent confusion due to time zone crossing. See the USC105 flight status page for this flight to view local times or setup timezone preferences in your user account.

Time Position Orientation Groundspeed Altitude Reporting Facility
EDT Latitude Longitude Course Direction KTS MPH feet Rate Location/Type
10:31PM 40.9278 -82.1386 246° West 185 213 6,900  Level Cleveland Center
10:32PM 40.9783 -82.1014 29° Northeast 188 216 6,900 -60 Level Cleveland Center
10:34PM 41.0373 -82.1666 320° Northwest  Level Estimated
10:36PM 41.4118 -81.9813 246° West  Level FlightAware Approximate
10:41PM 41.2683 -82.4235 320° Northwest  Level Estimated
10:42PM 41.3013 -82.4604 320° Northwest  Level Estimated
10:43PM 41.3343 -82.4973 320° Northwest  Level Estimated
10:44PM 41.3672 -82.5342 320° Northwest  Level Estimated
10:45PM 41.4001 -82.5712 320° Northwest  Level Estimated
10:46PM 41.4330 -82.6082 320° Northwest  Level Estimated
10:47PM 41.4659 -82.6452 320° Northwest  Level Estimated
10:48PM 41.4988 -82.6823 320° Northwest  Level Estimated
10:49PM 41.5317 -82.7194 320° Northwest  Level Estimated
10:50PM 41.5646 -82.7566 320° Northwest  Level Estimated
10:51PM 41.5974 -82.7938 320° Northwest  Level Estimated
10:52PM 41.6303 -82.8310 320° Northwest  Level Estimated
10:53PM 41.6631 -82.8683 320° Northwest  Level Estimated
10:54PM 41.6959 -82.9056 320° Northwest  Level Estimated
10:55PM 41.7287 -82.9429 320° Northwest  Level Estimated
10:56PM 41.7615 -82.9803 320° Northwest  Level Estimated
10:57PM 41.7943 -83.0177 320° Northwest  Level Estimated
10:58PM 41.8271 -83.0552 320° Northwest  Level Estimated
10:59PM 41.8598 -83.0927 320° Northwest  Level Estimated
11:00PM 41.8926 -83.1302 320° Northwest  Level Estimated
11:01PM 41.9253 -83.1678 320° Northwest  Level Estimated
11:02PM 41.9580 -83.2054 319° Northwest  Level Estimated
11:03PM 41.9907 -83.2431 319° Northwest  Level Estimated
11:04PM 42.0234 -83.2808 319° Northwest  Level Estimated
11:05PM 42.0561 -83.3185 319° Northwest  Level Estimated
11:06PM 42.0888 -83.3563 319° Northwest  Level Estimated
11:07PM 42.1214 -83.3941 319° Northwest  Level Estimated
11:08PM 42.1541 -83.4319 319° Northwest  Level Estimated
11:09PM 42.1867 -83.4698 319° Northwest  Level Estimated
11:10PM 42.2193 -83.5077 319° Northwest  Level Estimated
11:11PM 42.2393 -83.5310 319° Northwest  Level Estimated
11:12PM 42.2393 -83.5310 43° Northeast  Level Estimated
11:13PM 42.2393 -83.5310 43° Northeast  Level Estimated
11:14PM 42.2393 -83.5310 43° Northeast  Level Estimated
11:15PM 42.2393 -83.5310 43° Northeast  Level Estimated
11:16PM 42.2393 -83.5310 43° Northeast  Level Estimated
11:17PM 42.2393 -83.5310 43° Northeast  Level Estimated
11:18PM 42.2393 -83.5310 43° Northeast  Level Estimated
11:19PM 42.2393 -83.5310 43° Northeast  Level Estimated
11:20PM 42.2393 -83.5310 43° Northeast  Level Estimated
11:21PM 42.2393 -83.5310 43° Northeast  Level Estimated
11:22PM 42.2393 -83.5310 43° Northeast  Level Estimated
11:23PM 42.2393 -83.5310 43° Northeast  Level Estimated
11:24PM 42.2393 -83.5310 43° Northeast  Level Estimated
11:25PM 42.2393 -83.5310 43° Northeast  Level Estimated
11:26PM 42.2393 -83.5310 43° Northeast  Level Estimated
11:27PM 42.2393 -83.5310 43° Northeast  Level Estimated
11:28PM 42.2393 -83.5310 43° Northeast  Level Estimated
11:29PM 42.2393 -83.5310 43° Northeast  Level Estimated
11:29PM 41.9114 -82.6925 43° Northeast 173 199 5,900  Level Cleveland Center
11:30PM 42.2393 -83.5310 43° Northeast  Level Estimated
11:30PM 41.9544 -82.7303 327° Northwest 181 208 5,900  Level Cleveland Center
11:31PM 42.2393 -83.5310 43° Northeast  Level Estimated
11:31PM 41.9978 -82.7597 333° Northwest 178 205 5,900  Level Cleveland Center
11:32PM 42.2393 -83.5310 43° Northeast  Level Estimated
11:32PM 42.0344 -82.7944 325° Northwest 176 203 5,900  Level Cleveland Center
11:33PM 42.2393 -83.5310 43° Northeast  Level Estimated
11:33PM 42.0836 -82.8381 327° Northwest 178 205 5,900  Level Cleveland Center
11:34PM 42.2393 -83.5310 43° Northeast  Level Estimated
11:34PM 42.1267 -82.8733 329° Northwest 174 200 5,900  Level Cleveland Center
11:35PM 42.1636 -82.9056 327° Northwest 176 203 5,900  Level Cleveland Center
11:36PM 42.2044 -82.9433 326° Northwest 174 200 5,900 -300 Level Cleveland Center
11:37PM 42.2369 -82.9950 310° West 186 214 5,300 -540 Descending Cleveland Center
11:38PM 42.2647 -83.0578 301° West 193 222 4,900 -360 Descending Cleveland Center
11:39PM 42.2947 -83.1125 307° West 183 211 4,600 -480 Descending Cleveland Center
11:40PM 42.3269 -83.1725 306° West 192 221 4,000 -720 Descending Cleveland Center
11:41PM 42.3292 -83.2542 272° West 191 220 3,100 -600 Descending Cleveland Center
11:42PM 42.3336 -83.3275 275° West 174 200 2,800 -180 Descending Cleveland Center
11:43PM 42.3322 -83.3864 268° West 167 192 2,800 -120 Level Cleveland Center
11:44PM 42.3039 -83.4356 232° Southwest 162 186 2,600 -540 Descending Cleveland Center
11:45PM 42.2778 -83.4767 229° Southwest 129 148 1,800 -840 Descending Cleveland Center
11:46PM 42.2542 -83.5092 226° Southwest 104 120 1,000 -840 Descending Cleveland Center
11:48PM 42.2333 -83.5167 230° Southwest  Level FlightAware Approximate
11:55PM 42.2393 -83.5310 230° Southwest  Level Estimated
11:56PM 42.2393 -83.5310 230° Southwest  Level Estimated